Time,TemperatureF,DewpointF,PressureIn,WindDirection,WindDirectionDegrees,WindSpeedMPH,WindSpeedGustMPH,Humidity,HourlyPrecipIn,Conditions,Clouds,dailyrainin,SoftwareType,DateUTC
2013-01-01 00:09:00,26.4,21.4,29.90,WNW,292,2.2,-999.0,81,-99.99,,,0.00,Acu-Link.com,2013-01-01 05:09:00,
2013-01-01 00:24:00,26.1,21.3,29.90,WNW,292,1.6,-999.0,82,-99.99,,,0.00,Acu-Link.com,2013-01-01 05:24:00,
2013-01-01 00:39:00,26.2,21.2,29.90,WNW,292,0.0,-999.0,81,-99.99,,,0.00,Acu-Link.com,2013-01-01 05:39:00,
2013-01-01 00:54:00,26.1,21.6,29.90,WNW,292,2.7,-999.0,83,-99.99,,,0.00,Acu-Link.com,2013-01-01 05:54:00,
2013-01-01 01:10:00,26.1,21.9,29.90,NW,315,0.0,-999.0,84,-99.99,,,0.00,Acu-Link.com,2013-01-01 06:10:00,
2013-01-01 01:25:00,25.9,22.3,29.91,NW,315,0.0,-999.0,86,-99.99,,,0.00,Acu-Link.com,2013-01-01 06:25:00,
2013-01-01 01:40:00,25.9,22.3,29.90,NNW,337,7.4,-999.0,86,-99.99,,,0.00,Acu-Link.com,2013-01-01 06:40:00,
2013-01-01 01:55:00,25.7,22.1,29.91,NW,315,0.0,-999.0,86,-99.99,,,0.00,Acu-Link.com,2013-01-01 06:55:00,
2013-01-01 02:10:00,25.3,22.0,29.91,North,0,0.0,-999.0,87,-99.99,,,0.00,Acu-Link.com,2013-01-01 07:10:00,
2013-01-01 02:26:00,25.2,21.6,29.91,NW,315,0.0,-999.0,86,-99.99,,,0.00,Acu-Link.com,2013-01-01 07:26:00,
2013-01-01 02:41:00,25.0,21.1,29.91,WNW,292,0.0,-999.0,85,-99.99,,,0.00,Acu-Link.com,2013-01-01 07:41:00,
2013-01-01 02:56:00,25.0,20.8,29.91,WNW,292,1.6,-999.0,84,-99.99,,,0.00,Acu-Link.com,2013-01-01 07:56:00,
2013-01-01 03:11:00,24.8,20.9,29.91,WNW,292,0.0,-999.0,85,-99.99,,,0.00,Acu-Link.com,2013-01-01 08:11:00,
2013-01-01 03:27:00,24.4,20.9,29.92,WNW,292,0.0,-999.0,86,-99.99,,,0.00,Acu-Link.com,2013-01-01 08:27:00,
2013-01-01 03:42:00,24.4,20.6,29.91,West,270,7.4,-999.0,85,-99.99,,,0.00,Acu-Link.com,2013-01-01 08:42:00,
2013-01-01 03:57:00,24.1,20.2,29.92,WNW,292,3.8,-999.0,85,-99.99,,,0.00,Acu-Link.com,2013-01-01 08:57:00,
2013-01-01 04:12:00,23.9,20.1,29.92,NW,315,3.1,-999.0,85,-99.99,,,0.00,Acu-Link.com,2013-01-01 09:12:00,
2013-01-01 04:27:00,23.5,19.4,29.92,NW,315,6.3,-999.0,84,-99.99,,,0.00,Acu-Link.com,2013-01-01 09:27:00,
2013-01-01 04:42:00,23.4,18.7,29.92,NNW,337,2.2,-999.0,82,-99.99,,,0.00,Acu-Link.com,2013-01-01 09:42:00,
2013-01-01 04:57:00,23.0,18.9,29.92,North,0,0.0,-999.0,84,-99.99,,,0.00,Acu-Link.com,2013-01-01 09:57:00,
2013-01-01 05:13:00,22.6,18.5,29.93,NNW,337,0.0,-999.0,84,-99.99,,,0.00,Acu-Link.com,2013-01-01 10:13:00,
2013-01-01 05:28:00,22.3,18.2,29.94,NNW,337,0.0,-999.0,84,-99.99,,,0.00,Acu-Link.com,2013-01-01 10:28:00,
2013-01-01 05:43:00,21.9,16.7,29.94,NNW,337,4.7,-999.0,80,-99.99,,,0.00,Acu-Link.com,2013-01-01 10:43:00,
2013-01-01 05:58:00,21.2,16.3,29.93,NW,315,2.7,-999.0,81,-99.99,,,0.00,Acu-Link.com,2013-01-01 10:58:00,
2013-01-01 06:14:00,21.2,16.0,29.94,NW,315,5.8,-999.0,80,-99.99,,,0.00,Acu-Link.com,2013-01-01 11:14:00,
2013-01-01 06:29:00,21.2,16.3,29.93,NE,45,3.1,-999.0,81,-99.99,,,0.00,Acu-Link.com,2013-01-01 11:29:00,
2013-01-01 06:44:00,19.9,15.6,29.93,West,270,0.0,-999.0,83,-99.99,,,0.00,Acu-Link.com,2013-01-01 11:44:00,
2013-01-01 06:59:00,19.4,15.1,29.95,NW,315,0.0,-999.0,83,-99.99,,,0.00,Acu-Link.com,2013-01-01 11:59:00,
2013-01-01 07:14:00,18.0,14.0,29.96,NNE,22,0.0,-999.0,84,-99.99,,,0.00,Acu-Link.com,2013-01-01 12:14:00,
2013-01-01 07:30:00,16.7,13.8,29.96,West,270,0.0,-999.0,88,-99.99,,,0.00,Acu-Link.com,2013-01-01 12:30:00,
2013-01-01 07:45:00,15.3,13.4,29.98,WNW,292,0.0,-999.0,92,-99.99,,,0.00,Acu-Link.com,2013-01-01 12:45:00,
2013-01-01 08:00:00,14.9,13.0,29.98,WNW,292,0.0,-999.0,92,-99.99,,,0.00,Acu-Link.com,2013-01-01 13:00:00,
2013-01-01 08:15:00,14.7,13.1,29.99,SW,225,0.0,-999.0,93,-99.99,,,0.00,Acu-Link.com,2013-01-01 13:15:00,
2013-01-01 08:30:00,14.9,13.5,29.99,NE,45,0.0,-999.0,94,-99.99,,,0.00,Acu-Link.com,2013-01-01 13:30:00,
2013-01-01 08:46:00,15.6,14.4,29.99,WNW,292,0.0,-999.0,95,-99.99,,,0.00,Acu-Link.com,2013-01-01 13:46:00,
2013-01-01 09:01:00,16.9,15.5,30.01,West,270,0.0,-999.0,94,-99.99,,,0.00,Acu-Link.com,2013-01-01 14:01:00,
2013-01-01 09:16:00,18.9,16.7,30.01,NW,315,0.0,-999.0,91,-99.99,,,0.00,Acu-Link.com,2013-01-01 14:16:00,
2013-01-01 09:31:00,20.7,17.4,30.01,NW,315,2.2,-999.0,87,-99.99,,,0.00,Acu-Link.com,2013-01-01 14:31:00,
2013-01-01 09:46:00,21.2,17.1,30.01,NW,315,3.1,-999.0,84,-99.99,,,0.00,Acu-Link.com,2013-01-01 14:46:00,
2013-01-01 10:02:00,22.6,17.7,30.03,NNW,337,2.7,-999.0,81,-99.99,,,0.00,Acu-Link.com,2013-01-01 15:02:00,
2013-01-01 10:17:00,23.7,18.5,30.02,NNW,337,2.2,-999.0,80,-99.99,,,0.00,Acu-Link.com,2013-01-01 15:17:00,
2013-01-01 10:32:00,26.8,19.0,30.02,WSW,247,2.2,-999.0,72,-99.99,,,0.00,Acu-Link.com,2013-01-01 15:32:00,
2013-01-01 10:47:00,26.8,18.0,30.03,North,0,1.6,-999.0,69,-99.99,,,0.00,Acu-Link.com,2013-01-01 15:47:00,
2013-01-01 11:02:00,26.1,16.6,30.02,NW,315,2.7,-999.0,67,-99.99,,,0.00,Acu-Link.com,2013-01-01 16:02:00,
2013-01-01 11:18:00,27.3,16.8,30.01,WNW,292,11.4,-999.0,64,-99.99,,,0.00,Acu-Link.com,2013-01-01 16:18:00,
2013-01-01 11:33:00,27.9,16.9,29.99,NNW,337,5.8,-999.0,63,-99.99,,,0.00,Acu-Link.com,2013-01-01 16:33:00,
2013-01-01 11:48:00,29.1,17.4,29.97,West,270,7.8,-999.0,61,-99.99,,,0.00,Acu-Link.com,2013-01-01 16:48:00,
2013-01-01 12:03:00,27.5,16.2,29.97,NNW,337,0.0,-999.0,62,-99.99,,,0.00,Acu-Link.com,2013-01-01 17:03:00,
2013-01-01 12:19:00,28.6,15.7,29.97,WNW,292,6.7,-999.0,58,-99.99,,,0.00,Acu-Link.com,2013-01-01 17:19:00,
2013-01-01 12:34:00,30.6,16.8,29.97,NE,45,3.1,-999.0,56,-99.99,,,0.00,Acu-Link.com,2013-01-01 17:34:00,
2013-01-01 12:49:00,29.1,16.2,29.97,NW,315,2.7,-999.0,58,-99.99,,,0.00,Acu-Link.com,2013-01-01 17:49:00,
2013-01-01 13:04:00,29.8,16.1,29.97,NW,315,8.3,-999.0,56,-99.99,,,0.00,Acu-Link.com,2013-01-01 18:04:00,
2013-01-01 13:19:00,29.1,15.8,29.97,North,0,8.3,-999.0,57,-99.99,,,0.00,Acu-Link.com,2013-01-01 18:19:00,
2013-01-01 13:35:00,28.9,15.6,29.97,WNW,292,0.0,-999.0,57,-99.99,,,0.00,Acu-Link.com,2013-01-01 18:35:00,
2013-01-01 13:50:00,29.5,15.7,29.97,West,270,2.2,-999.0,56,-99.99,,,0.00,Acu-Link.com,2013-01-01 18:50:00,
2013-01-01 14:05:00,32.4,16.7,29.97,WSW,247,0.0,-999.0,52,-99.99,,,0.00,Acu-Link.com,2013-01-01 19:05:00,
2013-01-01 14:20:00,31.3,16.6,29.96,ESE,112,0.0,-999.0,54,-99.99,,,0.00,Acu-Link.com,2013-01-01 19:20:00,
2013-01-01 14:35:00,28.2,15.4,29.96,NNW,337,6.3,-999.0,58,-99.99,,,0.00,Acu-Link.com,2013-01-01 19:35:00,
2013-01-01 14:51:00,28.0,14.8,29.96,NW,315,6.3,-999.0,57,-99.99,,,0.00,Acu-Link.com,2013-01-01 19:51:00,
2013-01-01 15:06:00,27.0,15.0,29.96,NNW,337,5.1,-999.0,60,-99.99,,,0.00,Acu-Link.com,2013-01-01 20:06:00,
2013-01-01 15:21:00,25.9,14.3,29.96,WSW,247,0.0,-999.0,61,-99.99,,,0.00,Acu-Link.com,2013-01-01 20:21:00,
2013-01-01 15:36:00,25.3,14.2,29.96,WSW,247,2.2,-999.0,62,-99.99,,,0.00,Acu-Link.com,2013-01-01 20:36:00,
2013-01-01 15:51:00,24.8,14.0,29.96,NW,315,3.8,-999.0,63,-99.99,,,0.00,Acu-Link.com,2013-01-01 20:51:00,
2013-01-01 16:07:00,23.4,13.4,29.97,West,270,3.8,-999.0,65,-99.99,,,0.00,Acu-Link.com,2013-01-01 21:07:00,
2013-01-01 16:22:00,22.1,12.8,29.98,NNW,337,0.0,-999.0,67,-99.99,,,0.00,Acu-Link.com,2013-01-01 21:22:00,
2013-01-01 16:37:00,21.4,12.5,29.98,NNE,22,0.0,-999.0,68,-99.99,,,0.00,Acu-Link.com,2013-01-01 21:37:00,
2013-01-01 16:52:00,20.3,12.7,29.97,West,270,3.8,-999.0,72,-99.99,,,0.00,Acu-Link.com,2013-01-01 21:52:00,
2013-01-01 17:08:00,18.9,12.3,29.96,NNW,337,0.0,-999.0,75,-99.99,,,0.00,Acu-Link.com,2013-01-01 22:08:00,
2013-01-01 17:23:00,17.1,10.8,29.96,WSW,247,0.0,-999.0,76,-99.99,,,0.00,Acu-Link.com,2013-01-01 22:23:00,
2013-01-01 17:38:00,15.3,10.8,29.96,West,270,0.0,-999.0,82,-99.99,,,0.00,Acu-Link.com,2013-01-01 22:38:00,
2013-01-01 17:53:00,13.6,10.5,29.96,West,270,0.0,-999.0,87,-99.99,,,0.00,Acu-Link.com,2013-01-01 22:53:00,
2013-01-01 18:08:00,12.0,9.4,29.96,West,270,0.0,-999.0,89,-99.99,,,0.00,Acu-Link.com,2013-01-01 23:08:00,
2013-01-01 18:24:00,11.1,8.5,29.97,WNW,292,0.0,-999.0,89,-99.99,,,0.00,Acu-Link.com,2013-01-01 23:24:00,
2013-01-01 18:39:00,10.0,7.9,29.96,WNW,292,0.0,-999.0,91,-99.99,,,0.00,Acu-Link.com,2013-01-01 23:39:00,
2013-01-01 18:54:00,8.4,6.8,29.96,West,270,0.0,-999.0,93,-99.99,,,0.00,Acu-Link.com,2013-01-01 23:54:00,
2013-01-01 19:09:00,7.5,6.2,29.96,West,270,0.0,-999.0,94,-99.99,,,0.00,Acu-Link.com,2013-01-02 00:09:00,
2013-01-01 19:24:00,6.8,5.4,29.96,West,270,0.0,-999.0,94,-99.99,,,0.00,Acu-Link.com,2013-01-02 00:24:00,
2013-01-01 19:40:00,6.1,5.2,29.96,West,270,0.0,-999.0,96,-99.99,,,0.00,Acu-Link.com,2013-01-02 00:40:00,
2013-01-01 19:55:00,5.2,4.3,29.95,West,270,0.0,-999.0,96,-99.99,,,0.00,Acu-Link.com,2013-01-02 00:55:00,
2013-01-01 20:10:00,4.5,3.6,29.96,West,270,0.0,-999.0,96,-99.99,,,0.00,Acu-Link.com,2013-01-02 01:10:00,
2013-01-01 20:25:00,4.3,3.4,29.97,West,270,0.0,-999.0,96,-99.99,,,0.00,Acu-Link.com,2013-01-02 01:25:00,
2013-01-01 20:40:00,4.8,4.2,29.97,West,270,0.0,-999.0,97,-99.99,,,0.00,Acu-Link.com,2013-01-02 01:40:00,
2013-01-01 20:56:00,6.1,5.6,29.97,WNW,292,0.0,-999.0,98,-99.99,,,0.00,Acu-Link.com,2013-01-02 01:56:00,
2013-01-01 21:11:00,7.0,6.5,29.96,NW,315,0.0,-999.0,98,-99.99,,,0.00,Acu-Link.com,2013-01-02 02:11:00,
2013-01-01 21:26:00,8.1,7.6,29.97,WNW,292,0.0,-999.0,98,-99.99,,,0.00,Acu-Link.com,2013-01-02 02:26:00,
2013-01-01 21:41:00,9.0,8.5,29.97,SW,225,0.0,-999.0,98,-99.99,,,0.00,Acu-Link.com,2013-01-02 02:41:00,
2013-01-01 21:56:00,9.9,9.4,29.96,NNW,337,0.0,-999.0,98,-99.99,,,0.00,Acu-Link.com,2013-01-02 02:56:00,
2013-01-01 22:12:00,11.1,10.7,29.97,South,180,0.0,-999.0,98,-99.99,,,0.00,Acu-Link.com,2013-01-02 03:12:00,
2013-01-01 22:27:00,11.1,10.7,29.96,NW,315,0.0,-999.0,98,-99.99,,,0.00,Acu-Link.com,2013-01-02 03:27:00,
2013-01-01 22:42:00,10.8,10.3,29.96,SW,225,0.0,-999.0,98,-99.99,,,0.00,Acu-Link.com,2013-01-02 03:42:00,
2013-01-01 22:57:00,10.4,9.9,29.95,SSE,157,0.0,-999.0,98,-99.99,,,0.00,Acu-Link.com,2013-01-02 03:57:00,
2013-01-01 23:12:00,11.1,10.7,29.95,SW,225,0.0,-999.0,98,-99.99,,,0.00,Acu-Link.com,2013-01-02 04:12:00,
2013-01-01 23:28:00,11.1,10.7,29.95,ESE,112,0.0,-999.0,98,-99.99,,,0.00,Acu-Link.com,2013-01-02 04:28:00,
2013-01-01 23:43:00,10.4,9.9,29.95,WSW,247,0.0,-999.0,98,-99.99,,,0.00,Acu-Link.com,2013-01-02 04:43:00,
2013-01-01 23:58:00,9.1,8.7,29.96,South,180,0.0,-999.0,98,-99.99,,,0.00,Acu-Link.com,2013-01-02 04:58:00,